sensor_id;sensor_type;location;lat;lon;timestamp;P1;P2;P0
55857;PMS7003;41779;52.360;31.026;2023-12-14T00:01:44;15.2;12.2;9.2
55857;PMS7003;41779;52.360;31.026;2023-12-14T00:06:56;16.2;13.2;9.6
55857;PMS7003;41779;52.360;31.026;2023-12-14T00:12:14;16;13;9.6
55857;PMS7003;41779;52.360;31.026;2023-12-14T00:16:52;17.2;13.2;9.8
55857;PMS7003;41779;52.360;31.026;2023-12-14T00:21:39;14.8;11.4;8.4
55857;PMS7003;41779;52.360;31.026;2023-12-14T00:26:30;13.8;11.6;8.4
55857;PMS7003;41779;52.360;31.026;2023-12-14T00:32:09;14.2;11;8
55857;PMS7003;41779;52.360;31.026;2023-12-14T00:37:16;14;9.8;7
55857;PMS7003;41779;52.360;31.026;2023-12-14T00:41:28;10.3;8.8;6.5
55857;PMS7003;41779;52.360;31.026;2023-12-14T00:47:04;10.2;8.2;5.6
55857;PMS7003;41779;52.360;31.026;2023-12-14T00:52:17;11.8;9;6.8
55857;PMS7003;41779;52.360;31.026;2023-12-14T00:57:06;10.2;7.4;5.8
55857;PMS7003;41779;52.360;31.026;2023-12-14T01:02:16;14;8.8;7.2
55857;PMS7003;41779;52.360;31.026;2023-12-14T01:06:28;13.2;9.2;7.2
55857;PMS7003;41779;52.360;31.026;2023-12-14T01:11:32;11;8;6.6
55857;PMS7003;41779;52.360;31.026;2023-12-14T01:17:17;14.8;9.2;7.2
55857;PMS7003;41779;52.360;31.026;2023-12-14T01:21:51;13.2;9.6;7
55857;PMS7003;41779;52.360;31.026;2023-12-14T01:27:17;14.8;10.2;7.2
55857;PMS7003;41779;52.360;31.026;2023-12-14T01:31:43;10.2;9;7
55857;PMS7003;41779;52.360;31.026;2023-12-14T01:36:49;13.8;9.8;7.4
55857;PMS7003;41779;52.360;31.026;2023-12-14T01:41:45;12.5;9;8
55857;PMS7003;41779;52.360;31.026;2023-12-14T01:47:09;11.8;10;7.4
55857;PMS7003;41779;52.360;31.026;2023-12-14T01:51:59;9.4;7.6;6.6
55857;PMS7003;41779;52.360;31.026;2023-12-14T01:56:45;11;8.2;7.2
55857;PMS7003;41779;52.360;31.026;2023-12-14T02:01:45;12.8;9.2;6.4
55857;PMS7003;41779;52.360;31.026;2023-12-14T02:06:29;8.4;7.4;6.2
55857;PMS7003;41779;52.360;31.026;2023-12-14T02:12:09;12;8.2;6.8
55857;PMS7003;41779;52.360;31.026;2023-12-14T02:17:15;10;6.6;4.8
55857;PMS7003;41779;52.360;31.026;2023-12-14T02:21:39;11.4;9;6.8
55857;PMS7003;41779;52.360;31.026;2023-12-14T02:26:31;9.6;7.8;6.4
55857;PMS7003;41779;52.360;31.026;2023-12-14T02:32:03;11.4;8.6;6.2
55857;PMS7003;41779;52.360;31.026;2023-12-14T02:36:29;11.4;8.4;7
55857;PMS7003;41779;52.360;31.026;2023-12-14T02:42:17;12.6;9.2;6.8
55857;PMS7003;41779;52.360;31.026;2023-12-14T02:46:39;14.3;10.5;8
55857;PMS7003;41779;52.360;31.026;2023-12-14T02:51:39;13.4;10.6;7.6
55857;PMS7003;41779;52.360;31.026;2023-12-14T02:56:57;12.4;10;7.8
55857;PMS7003;41779;52.360;31.026;2023-12-14T03:02:09;15.8;10.4;8.8
55857;PMS7003;41779;52.360;31.026;2023-12-14T03:07:15;16;10.6;8.4
55857;PMS7003;41779;52.360;31.026;2023-12-14T03:11:43;17.4;12.8;9.8
55857;PMS7003;41779;52.360;31.026;2023-12-14T03:17:03;10.4;9.8;8
55857;PMS7003;41779;52.360;31.026;2023-12-14T03:21:29;12.6;10.2;7.2
55857;PMS7003;41779;52.360;31.026;2023-12-14T03:26:29;14.2;10;6.6
55857;PMS7003;41779;52.360;31.026;2023-12-14T03:31:59;16.2;13.6;9.8
55857;PMS7003;41779;52.360;31.026;2023-12-14T03:36:29;14.6;11;8.8
55857;PMS7003;41779;52.360;31.026;2023-12-14T03:41:59;14.2;10.6;9.2
55857;PMS7003;41779;52.360;31.026;2023-12-14T03:46:37;13.3;10.8;9.8
55857;PMS7003;41779;52.360;31.026;2023-12-14T03:52:08;16.6;14.4;11.8
55857;PMS7003;41779;52.360;31.026;2023-12-14T03:57:19;16.6;12;8.2
55857;PMS7003;41779;52.360;31.026;2023-12-14T04:01:37;14;11.4;9
55857;PMS7003;41779;52.360;31.026;2023-12-14T04:07:07;13.8;10.4;8
55857;PMS7003;41779;52.360;31.026;2023-12-14T04:11:31;21.4;16;11.2
55857;PMS7003;41779;52.360;31.026;2023-12-14T04:16:57;22.6;18;13.2
55857;PMS7003;41779;52.360;31.026;2023-12-14T04:22:05;20.6;16.2;11.6
55857;PMS7003;41779;52.360;31.026;2023-12-14T04:26:37;19.4;14.6;11.2
55857;PMS7003;41779;52.360;31.026;2023-12-14T04:31:29;15.4;10.6;8.4
55857;PMS7003;41779;52.360;31.026;2023-12-14T04:36:29;11.4;9;7
55857;PMS7003;41779;52.360;31.026;2023-12-14T04:42:07;18.2;13.2;9.6
55857;PMS7003;41779;52.360;31.026;2023-12-14T04:47:17;15.3;12.5;9.5
55857;PMS7003;41779;52.360;31.026;2023-12-14T04:51:29;13.8;9;7
55857;PMS7003;41779;52.360;31.026;2023-12-14T04:56:33;13;10.4;8.4
55857;PMS7003;41779;52.360;31.026;2023-12-14T05:01:43;14.4;10.6;8
55857;PMS7003;41779;52.360;31.026;2023-12-14T05:06:29;12.2;7.8;5.8
55857;PMS7003;41779;52.360;31.026;2023-12-14T05:12:17;11.2;9;7.4
55857;PMS7003;41779;52.360;31.026;2023-12-14T05:16:31;11.2;8.4;6.6
55857;PMS7003;41779;52.360;31.026;2023-12-14T05:21:29;13;8.8;7.8
55857;PMS7003;41779;52.360;31.026;2023-12-14T05:27:17;13.4;9.6;7.6
55857;PMS7003;41779;52.360;31.026;2023-12-14T05:31:47;14.4;10;7.8
55857;PMS7003;41779;52.360;31.026;2023-12-14T05:37:15;12.2;10.2;8.4
55857;PMS7003;41779;52.360;31.026;2023-12-14T05:42:15;9.8;9.6;7.6
55857;PMS7003;41779;52.360;31.026;2023-12-14T05:46:45;13.3;8.3;6.8
55857;PMS7003;41779;52.360;31.026;2023-12-14T05:52:05;11.8;7.6;6
55857;PMS7003;41779;52.360;31.026;2023-12-14T05:56:37;14.2;10.2;7.8
55857;PMS7003;41779;52.360;31.026;2023-12-14T06:02:01;11.2;8.6;7.8
55857;PMS7003;41779;52.360;31.026;2023-12-14T06:06:29;11.8;9;6.6
55857;PMS7003;41779;52.360;31.026;2023-12-14T06:12:09;11.6;8;7
55857;PMS7003;41779;52.360;31.026;2023-12-14T06:17:15;13.2;9.4;6.2
55857;PMS7003;41779;52.360;31.026;2023-12-14T06:21:49;11.4;7;6.6
55857;PMS7003;41779;52.360;31.026;2023-12-14T06:27:11;15.2;7.6;6.8
55857;PMS7003;41779;52.360;31.026;2023-12-14T06:31:55;11;8.8;6.6
55857;PMS7003;41779;52.360;31.026;2023-12-14T06:37:17;14.2;10;8.2
55857;PMS7003;41779;52.360;31.026;2023-12-14T06:41:41;14.8;9.6;6.6
55857;PMS7003;41779;52.360;31.026;2023-12-14T06:47:15;11.5;8.8;5.8
55857;PMS7003;41779;52.360;31.026;2023-12-14T06:52:03;11.2;8.2;6.8
55857;PMS7003;41779;52.360;31.026;2023-12-14T06:56:31;9.2;7.2;5.6
55857;PMS7003;41779;52.360;31.026;2023-12-14T07:01:31;10.6;8.2;5.6
55857;PMS7003;41779;52.360;31.026;2023-12-14T07:07:07;10.4;7.8;6.2
55857;PMS7003;41779;52.360;31.026;2023-12-14T07:11:47;18;11.2;8.2
55857;PMS7003;41779;52.360;31.026;2023-12-14T07:17:15;13.8;10;7.8
55857;PMS7003;41779;52.360;31.026;2023-12-14T07:22:15;14.8;9.8;8
55857;PMS7003;41779;52.360;31.026;2023-12-14T07:27:05;16.6;15;10.2
55857;PMS7003;41779;52.360;31.026;2023-12-14T07:32:05;15.4;10.8;8.4
55857;PMS7003;41779;52.360;31.026;2023-12-14T07:36:57;15.2;9.4;7.2
55857;PMS7003;41779;52.360;31.026;2023-12-14T07:41:33;14.2;8.6;7.2
55857;PMS7003;41779;52.360;31.026;2023-12-14T07:46:29;11.6;7;5.2
55857;PMS7003;41779;52.360;31.026;2023-12-14T07:51:59;12.8;7.5;5.5
55857;PMS7003;41779;52.360;31.026;2023-12-14T07:57:13;12.8;8.8;7.6
55857;PMS7003;41779;52.360;31.026;2023-12-14T08:01:29;13.8;10.2;8.4
55857;PMS7003;41779;52.360;31.026;2023-12-14T08:06:39;14.2;10;7.6
55857;PMS7003;41779;52.360;31.026;2023-12-14T08:12:15;14.2;10.2;7.8
55857;PMS7003;41779;52.360;31.026;2023-12-14T08:17:13;13.4;8.4;6
55857;PMS7003;41779;52.360;31.026;2023-12-14T08:21:59;13.8;10.6;8.2
55857;PMS7003;41779;52.360;31.026;2023-12-14T08:26:47;10.8;7.8;6.4
55857;PMS7003;41779;52.360;31.026;2023-12-14T08:31:31;13.4;9.4;7
55857;PMS7003;41779;52.360;31.026;2023-12-14T08:36:37;14.8;9.8;7.8
55857;PMS7003;41779;52.360;31.026;2023-12-14T08:41:49;13.6;9;8.2
55857;PMS7003;41779;52.360;31.026;2023-12-14T08:46:53;12.4;9;6.2
55857;PMS7003;41779;52.360;31.026;2023-12-14T08:51:57;16.5;11.8;8.3
55857;PMS7003;41779;52.360;31.026;2023-12-14T08:57:11;20;14;10.2
55857;PMS7003;41779;52.360;31.026;2023-12-14T09:02:13;18.2;12.2;9.8
55857;PMS7003;41779;52.360;31.026;2023-12-14T09:06:52;15;10.6;8.2
55857;PMS7003;41779;52.360;31.026;2023-12-14T09:11:53;19;13.2;9.2
55857;PMS7003;41779;52.360;31.026;2023-12-14T09:16:29;12.4;8.6;7.2
55857;PMS7003;41779;52.360;31.026;2023-12-14T09:21:53;12.2;9;6.2
55857;PMS7003;41779;52.360;31.026;2023-12-14T09:26:29;10.4;9;6.6
55857;PMS7003;41779;52.360;31.026;2023-12-14T09:32:06;12.8;10.6;7.4
55857;PMS7003;41779;52.360;31.026;2023-12-14T09:37:13;13.6;9.2;6.8
55857;PMS7003;41779;52.360;31.026;2023-12-14T09:41:45;20.4;11.8;8.6
55857;PMS7003;41779;52.360;31.026;2023-12-14T09:47:13;18;13.2;9.6
55857;PMS7003;41779;52.360;31.026;2023-12-14T09:51:53;16.3;11.3;8.5
55857;PMS7003;41779;52.360;31.026;2023-12-14T09:57:13;12.8;9.6;8
55857;PMS7003;41779;52.360;31.026;2023-12-14T10:02:15;16;12.2;8.2
55857;PMS7003;41779;52.360;31.026;2023-12-14T10:06:57;16.4;12.4;8.4
55857;PMS7003;41779;52.360;31.026;2023-12-14T10:12:06;14;9.8;6.8
55857;PMS7003;41779;52.360;31.026;2023-12-14T10:17:17;10;8.2;5.8
55857;PMS7003;41779;52.360;31.026;2023-12-14T10:21:31;22.6;15.4;11.8
55857;PMS7003;41779;52.360;31.026;2023-12-14T10:26:53;16.4;12.6;8.2
55857;PMS7003;41779;52.360;31.026;2023-12-14T10:31:31;16.4;12;8.4
55857;PMS7003;41779;52.360;31.026;2023-12-14T10:37:15;18.4;12.6;8.4
55857;PMS7003;41779;52.360;31.026;2023-12-14T10:41:31;21.8;15.6;11.4
55857;PMS7003;41779;52.360;31.026;2023-12-14T10:47:17;12.6;9.2;7.2
55857;PMS7003;41779;52.360;31.026;2023-12-14T10:52:15;9.5;7.3;5.3
55857;PMS7003;41779;52.360;31.026;2023-12-14T10:56:31;12.2;7.2;6.4
55857;PMS7003;41779;52.360;31.026;2023-12-14T11:01:37;12.4;8.4;6
55857;PMS7003;41779;52.360;31.026;2023-12-14T11:06:37;14.2;9;6.6
55857;PMS7003;41779;52.360;31.026;2023-12-14T11:11:29;12.8;9.2;7.8
55857;PMS7003;41779;52.360;31.026;2023-12-14T11:16:54;16.8;12;8.8
55857;PMS7003;41779;52.360;31.026;2023-12-14T11:21:29;18.8;10.2;6.4
55857;PMS7003;41779;52.360;31.026;2023-12-14T11:27:15;9.8;6.8;5.2
55857;PMS7003;41779;52.360;31.026;2023-12-14T11:31:45;10.4;6.4;4.4
55857;PMS7003;41779;52.360;31.026;2023-12-14T11:36:51;20;12.8;9.8
55857;PMS7003;41779;52.360;31.026;2023-12-14T11:42:17;15.6;11.4;8.8
55857;PMS7003;41779;52.360;31.026;2023-12-14T11:46:29;17.4;11.2;7.6
55857;PMS7003;41779;52.360;31.026;2023-12-14T11:52:13;9.3;6.5;5
55857;PMS7003;41779;52.360;31.026;2023-12-14T11:56:39;10.2;6.4;4.8
55857;PMS7003;41779;52.360;31.026;2023-12-14T12:02:03;14.4;7.4;5.8
55857;PMS7003;41779;52.360;31.026;2023-12-14T12:07:00;17.8;11.2;8.2
55857;PMS7003;41779;52.360;31.026;2023-12-14T12:11:35;14.8;10.2;7.6
55857;PMS7003;41779;52.360;31.026;2023-12-14T12:17:13;9;6;4.4
55857;PMS7003;41779;52.360;31.026;2023-12-14T12:21:55;7.2;4.6;4.2
55857;PMS7003;41779;52.360;31.026;2023-12-14T12:27:15;7.8;4.4;4.4
55857;PMS7003;41779;52.360;31.026;2023-12-14T12:32:11;5.2;4.2;3
55857;PMS7003;41779;52.360;31.026;2023-12-14T12:36:35;11.4;8.8;6.4
55857;PMS7003;41779;52.360;31.026;2023-12-14T12:41:57;8.6;6;6
55857;PMS7003;41779;52.360;31.026;2023-12-14T12:46:31;9.4;6.4;4.8
55857;PMS7003;41779;52.360;31.026;2023-12-14T12:51:57;5.8;5;3.8
55857;PMS7003;41779;52.360;31.026;2023-12-14T12:56:53;7.5;3.8;3.3
55857;PMS7003;41779;52.360;31.026;2023-12-14T13:01:45;10.2;7.4;5.8
55857;PMS7003;41779;52.360;31.026;2023-12-14T13:07:15;9.8;6.8;5.4
55857;PMS7003;41779;52.360;31.026;2023-12-14T13:12:05;7.8;5.6;5.2
55857;PMS7003;41779;52.360;31.026;2023-12-14T13:17:15;9.2;6.8;5.8
55857;PMS7003;41779;52.360;31.026;2023-12-14T13:22:17;7.8;6.2;4.8
55857;PMS7003;41779;52.360;31.026;2023-12-14T13:26:57;9.6;7.2;5.4
55857;PMS7003;41779;52.360;31.026;2023-12-14T13:31:59;8.2;5.4;3.8
55857;PMS7003;41779;52.360;31.026;2023-12-14T13:37:15;8.8;5.4;4.4
55857;PMS7003;41779;52.360;31.026;2023-12-14T13:41:47;8.8;5.4;3.8
55857;PMS7003;41779;52.360;31.026;2023-12-14T13:46:55;9.6;6.6;5.2
55857;PMS7003;41779;52.360;31.026;2023-12-14T13:51:31;7.8;5.2;4.4
55857;PMS7003;41779;52.360;31.026;2023-12-14T13:57:05;11;8.5;6.5
55857;PMS7003;41779;52.360;31.026;2023-12-14T14:01:45;10.8;7.4;6.2
55857;PMS7003;41779;52.360;31.026;2023-12-14T14:06:49;12.6;8.2;6
55857;PMS7003;41779;52.360;31.026;2023-12-14T14:12:15;18.2;10.6;7.2
55857;PMS7003;41779;52.360;31.026;2023-12-14T14:17:07;12.6;8;5.8
55857;PMS7003;41779;52.360;31.026;2023-12-14T14:22:05;11;6.8;5.2
55857;PMS7003;41779;52.360;31.026;2023-12-14T14:26:39;10.4;5.2;4.4
55857;PMS7003;41779;52.360;31.026;2023-12-14T14:31:29;7.6;3.8;3
55857;PMS7003;41779;52.360;31.026;2023-12-14T14:37:07;10.6;7.2;4.2
55857;PMS7003;41779;52.360;31.026;2023-12-14T14:41:29;8.2;4.8;3.6
55857;PMS7003;41779;52.360;31.026;2023-12-14T14:46:31;5.2;4.4;3.6
55857;PMS7003;41779;52.360;31.026;2023-12-14T14:51:53;8;4.6;3.6
55857;PMS7003;41779;52.360;31.026;2023-12-14T14:56:39;14;7.8;6
55857;PMS7003;41779;52.360;31.026;2023-12-14T15:02:15;7.8;6.6;5.2
55857;PMS7003;41779;52.360;31.026;2023-12-14T15:07:07;8.2;6;5.2
55857;PMS7003;41779;52.360;31.026;2023-12-14T15:11:57;7.8;6.2;5.6
55857;PMS7003;41779;52.360;31.026;2023-12-14T15:16:29;8;5.8;4.8
55857;PMS7003;41779;52.360;31.026;2023-12-14T15:21:49;8.6;5.6;4.2
55857;PMS7003;41779;52.360;31.026;2023-12-14T15:27:17;8.6;5.4;3.8
55857;PMS7003;41779;52.360;31.026;2023-12-14T15:31:49;5.8;3.4;2.4
55857;PMS7003;41779;52.360;31.026;2023-12-14T15:36:29;6.4;4.8;3.8
55857;PMS7003;41779;52.360;31.026;2023-12-14T15:41:55;7.6;4.4;4
55857;PMS7003;41779;52.360;31.026;2023-12-14T15:47:09;5.8;3.8;3.8
55857;PMS7003;41779;52.360;31.026;2023-12-14T15:52:13;7.6;5;4
55857;PMS7003;41779;52.360;31.026;2023-12-14T15:57:07;7.5;4.3;2
55857;PMS7003;41779;52.360;31.026;2023-12-14T16:01:39;7;3.8;3.6
55857;PMS7003;41779;52.360;31.026;2023-12-14T16:06:41;7.8;4.2;3
55857;PMS7003;41779;52.360;31.026;2023-12-14T16:12:15;6;4.2;3.6
55857;PMS7003;41779;52.360;31.026;2023-12-14T16:17:09;5.8;3.8;3.4
55857;PMS7003;41779;52.360;31.026;2023-12-14T16:21:47;9.8;5.6;4.2
55857;PMS7003;41779;52.360;31.026;2023-12-14T16:26:29;7.8;3.8;3.4
55857;PMS7003;41779;52.360;31.026;2023-12-14T16:31:41;7.2;3.6;3.6
55857;PMS7003;41779;52.360;31.026;2023-12-14T16:36:57;7.4;4.4;3.2
55857;PMS7003;41779;52.360;31.026;2023-12-14T16:42:15;7.6;6.2;5.2
55857;PMS7003;41779;52.360;31.026;2023-12-14T16:47:07;10.6;6.6;4.8
55857;PMS7003;41779;52.360;31.026;2023-12-14T16:51:29;9;6;4.6
55857;PMS7003;41779;52.360;31.026;2023-12-14T16:56:41;6;5;4
55857;PMS7003;41779;52.360;31.026;2023-12-14T17:01:47;9.6;5;3.8
55857;PMS7003;41779;52.360;31.026;2023-12-14T17:07:17;7.8;5.4;4.8
55857;PMS7003;41779;52.360;31.026;2023-12-14T17:11:47;8;4.6;3
55857;PMS7003;41779;52.360;31.026;2023-12-14T17:16:29;10;7.4;5
55857;PMS7003;41779;52.360;31.026;2023-12-14T17:32:15;12;4;3
55857;PMS7003;41779;52.360;31.026;2023-12-14T17:36:34;10.8;6.4;4.6
55857;PMS7003;41779;52.360;31.026;2023-12-14T17:42:05;11.6;5.4;4
55857;PMS7003;41779;52.360;31.026;2023-12-14T17:46:31;8.2;6;3.8
55857;PMS7003;41779;52.360;31.026;2023-12-14T17:51:49;10.6;6.4;5
55857;PMS7003;41779;52.360;31.026;2023-12-14T17:57:15;8.3;6.3;5.5
55857;PMS7003;41779;52.360;31.026;2023-12-14T18:01:43;6.4;4.8;3.8
55857;PMS7003;41779;52.360;31.026;2023-12-14T18:07:15;9;4.2;3.2
55857;PMS7003;41779;52.360;31.026;2023-12-14T18:11:51;9.4;5.2;4.4
55857;PMS7003;41779;52.360;31.026;2023-12-14T18:16:41;7;4.4;3.8
55857;PMS7003;41779;52.360;31.026;2023-12-14T18:22:17;6.8;3.6;2.4
55857;PMS7003;41779;52.360;31.026;2023-12-14T18:26:57;9;5;3.6
55857;PMS7003;41779;52.360;31.026;2023-12-14T18:31:31;10.6;4.8;3.6
55857;PMS7003;41779;52.360;31.026;2023-12-14T18:36:45;9.8;5.6;3.8
55857;PMS7003;41779;52.360;31.026;2023-12-14T18:41:47;9.6;4.8;3.6
55857;PMS7003;41779;52.360;31.026;2023-12-14T18:47:17;8.4;5.2;3.6
55857;PMS7003;41779;52.360;31.026;2023-12-14T18:52:07;11;8;5.2
55857;PMS7003;41779;52.360;31.026;2023-12-14T18:56:39;10.4;7;4.8
55857;PMS7003;41779;52.360;31.026;2023-12-14T19:01:55;10.8;7;4.8
55857;PMS7003;41779;52.360;31.026;2023-12-14T19:06:41;8.8;6;4
55857;PMS7003;41779;52.360;31.026;2023-12-14T19:12:15;10.8;7.4;4.8
55857;PMS7003;41779;52.360;31.026;2023-12-14T19:17:07;13.6;6.6;4.4
55857;PMS7003;41779;52.360;31.026;2023-12-14T19:21:29;9;7;5.2
55857;PMS7003;41779;52.360;31.026;2023-12-14T19:26:45;11.8;7;5.6
55857;PMS7003;41779;52.360;31.026;2023-12-14T19:31:31;10.8;7.8;6.2
55857;PMS7003;41779;52.360;31.026;2023-12-14T19:37:15;10.8;7.4;5.2
55857;PMS7003;41779;52.360;31.026;2023-12-14T19:41:29;9.6;6.4;5.2
55857;PMS7003;41779;52.360;31.026;2023-12-14T19:46:59;8.2;6.2;4.4
55857;PMS7003;41779;52.360;31.026;2023-12-14T19:51:58;9.4;5.8;4.4
55857;PMS7003;41779;52.360;31.026;2023-12-14T19:56:43;10;6.4;4.8
55857;PMS7003;41779;52.360;31.026;2023-12-14T20:02:15;12;6.8;5.8
55857;PMS7003;41779;52.360;31.026;2023-12-14T20:07:15;12.2;7;4.8
55857;PMS7003;41779;52.360;31.026;2023-12-14T20:11:39;13.8;7.8;5.6
55857;PMS7003;41779;52.360;31.026;2023-12-14T20:16:31;13.2;7.8;5.8
55857;PMS7003;41779;52.360;31.026;2023-12-14T20:21:34;7.8;4.4;3.6
55857;PMS7003;41779;52.360;31.026;2023-12-14T20:27:15;8.8;5.2;3.8
55857;PMS7003;41779;52.360;31.026;2023-12-14T20:32:07;9;4.8;3.8
55857;PMS7003;41779;52.360;31.026;2023-12-14T20:36:29;7.2;3.8;2.6
55857;PMS7003;41779;52.360;31.026;2023-12-14T20:41:55;7.8;6;3.8
55857;PMS7003;41779;52.360;31.026;2023-12-14T20:46:51;7.4;3.8;2.8
55857;PMS7003;41779;52.360;31.026;2023-12-14T20:52:13;8.4;5.8;4.6
55857;PMS7003;41779;52.360;31.026;2023-12-14T20:57:15;6.8;5.2;3.8
55857;PMS7003;41779;52.360;31.026;2023-12-14T21:01:29;10.5;5.8;4
55857;PMS7003;41779;52.360;31.026;2023-12-14T21:06:49;11.2;6;4.6
55857;PMS7003;41779;52.360;31.026;2023-12-14T21:12:05;11.2;6.2;4.6
55857;PMS7003;41779;52.360;31.026;2023-12-14T21:17:13;9.6;7;5.6
55857;PMS7003;41779;52.360;31.026;2023-12-14T21:21:31;9;7.6;4
55857;PMS7003;41779;52.360;31.026;2023-12-14T21:26:47;9.2;8.2;5.2
55857;PMS7003;41779;52.360;31.026;2023-12-14T21:31:31;9.4;6.6;5.4
55857;PMS7003;41779;52.360;31.026;2023-12-14T21:36:41;13.2;8.4;5.2
55857;PMS7003;41779;52.360;31.026;2023-12-14T21:42:15;7.4;4.2;2.8
55857;PMS7003;41779;52.360;31.026;2023-12-14T21:46:51;7.8;4.4;3.2
55857;PMS7003;41779;52.360;31.026;2023-12-14T21:51:35;8.4;4;3.4
55857;PMS7003;41779;52.360;31.026;2023-12-14T21:56:39;9.6;5.4;4
55857;PMS7003;41779;52.360;31.026;2023-12-14T22:02:09;9.3;5.8;4
55857;PMS7003;41779;52.360;31.026;2023-12-14T22:07:15;8.4;5.2;3.4
55857;PMS7003;41779;52.360;31.026;2023-12-14T22:11:31;8.2;5;4
55857;PMS7003;41779;52.360;31.026;2023-12-14T22:16:31;8.6;5.6;3.8
55857;PMS7003;41779;52.360;31.026;2023-12-14T22:21:49;11.6;5.8;5.2
55857;PMS7003;41779;52.360;31.026;2023-12-14T22:27:08;10;6.8;5.8
55857;PMS7003;41779;52.360;31.026;2023-12-14T22:32:15;11.8;5;4.2
55857;PMS7003;41779;52.360;31.026;2023-12-14T22:37:07;9.6;5.4;3.6
55857;PMS7003;41779;52.360;31.026;2023-12-14T22:41:31;9.6;4.8;3.6
55857;PMS7003;41779;52.360;31.026;2023-12-14T22:46:57;7.2;5;3.6
55857;PMS7003;41779;52.360;31.026;2023-12-14T22:51:49;8;4.6;3.6
55857;PMS7003;41779;52.360;31.026;2023-12-14T22:57:15;9;5.2;4
55857;PMS7003;41779;52.360;31.026;2023-12-14T23:01:45;7;4.3;3
55857;PMS7003;41779;52.360;31.026;2023-12-14T23:06:45;7.8;5;3.6
55857;PMS7003;41779;52.360;31.026;2023-12-14T23:11:47;10;5.2;3.4
55857;PMS7003;41779;52.360;31.026;2023-12-14T23:17:07;7.4;4.4;3.4
55857;PMS7003;41779;52.360;31.026;2023-12-14T23:22:15;6.6;4;2.8
55857;PMS7003;41779;52.360;31.026;2023-12-14T23:26:29;9.6;5.8;4.8
55857;PMS7003;41779;52.360;31.026;2023-12-14T23:32:05;9.4;4.6;2.8
55857;PMS7003;41779;52.360;31.026;2023-12-14T23:36:39;8.8;4.4;3
55857;PMS7003;41779;52.360;31.026;2023-12-14T23:41:29;7.6;5;3.6
55857;PMS7003;41779;52.360;31.026;2023-12-14T23:47:07;7.2;4.2;3.6
55857;PMS7003;41779;52.360;31.026;2023-12-14T23:52:17;9.4;2.6;2.2
55857;PMS7003;41779;52.360;31.026;2023-12-14T23:56:35;6.4;3.4;2.6
